Time;durP1;ratioP1;P1;durP2;ratioP2;P2;SDS_P1;SDS_P2;PMS_P1;PMS_P2;Temp;Humidity;BMP_temperature;BMP_pressure;BME280_temperature;BME280_humidity;BME280_pressure;Samples;Min_cycle;Max_cycle;Signal;HPM_P1;HPM_P2
2022/05/09 00:00:31;;;;;;;5.37;2.70;;;12.90;99.90;;;;;;4407798;28;656849;-67
2022/05/09 00:03:18;;;;;;;6.30;2.63;;;12.80;99.90;;;;;;4437310;28;657119;-67
2022/05/09 00:06:07;;;;;;;5.03;2.80;;;12.80;99.90;;;;;;4421826;28;657074;-67
2022/05/09 00:08:54;;;;;;;8.17;2.70;;;12.80;99.90;;;;;;4437799;28;656005;-67
2022/05/09 00:11:41;;;;;;;3.93;2.90;;;12.70;99.90;;;;;;4417853;28;656602;-67
2022/05/09 00:14:29;;;;;;;7.37;2.70;;;12.70;99.90;;;;;;4438640;28;658941;-67
2022/05/09 00:17:16;;;;;;;5.57;3.03;;;12.60;99.90;;;;;;4419778;28;656648;-67
2022/05/09 00:20:03;;;;;;;3.70;2.63;;;12.50;99.90;;;;;;4441715;28;656892;-67
2022/05/09 00:22:53;;;;;;;8.30;3.10;;;12.60;99.90;;;;;;4417526;28;656287;-67
2022/05/09 00:25:40;;;;;;;9.80;3.00;;;12.60;99.90;;;;;;4422367;28;656731;-68
2022/05/09 00:28:28;;;;;;;4.67;2.93;;;12.60;99.90;;;;;;4443033;28;656658;-67
2022/05/09 00:31:15;;;;;;;8.90;3.13;;;12.70;99.90;;;;;;4417208;28;656840;-67
2022/05/09 00:34:03;;;;;;;8.37;2.97;;;12.70;99.90;;;;;;4434828;28;658186;-67
2022/05/09 00:36:52;;;;;;;3.97;2.53;;;12.70;99.90;;;;;;4433372;28;656476;-67
2022/05/09 00:39:40;;;;;;;3.53;2.80;;;12.80;99.90;;;;;;4436867;28;656586;-67
2022/05/09 00:42:27;;;;;;;4.73;2.60;;;12.90;99.90;;;;;;4418713;28;656707;-67
2022/05/09 00:45:15;;;;;;;5.07;2.90;;;13.00;99.90;;;;;;4436291;28;657008;-67
2022/05/09 00:48:02;;;;;;;5.83;2.90;;;13.00;99.90;;;;;;4421121;28;657463;-67
2022/05/09 00:50:49;;;;;;;5.90;2.70;;;13.10;99.90;;;;;;4441586;28;656082;-67
2022/05/09 00:53:36;;;;;;;4.77;2.67;;;13.10;99.90;;;;;;4418216;28;656896;-67
2022/05/09 00:56:26;;;;;;;4.73;2.80;;;13.10;99.90;;;;;;4439305;28;657692;-67
2022/05/09 00:59:15;;;;;;;4.70;3.17;;;13.10;99.90;;;;;;4415583;28;657231;-67
2022/05/09 01:02:02;;;;;;;3.57;2.60;;;13.10;99.90;;;;;;4421680;28;657003;-67
2022/05/09 01:04:53;;;;;;;4.97;2.60;;;13.20;99.90;;;;;;4440020;28;657105;-67
2022/05/09 01:07:40;;;;;;;5.97;2.90;;;13.20;99.90;;;;;;4402687;28;656840;-67
2022/05/09 01:10:29;;;;;;;5.77;2.97;;;13.20;99.90;;;;;;4437431;28;656384;-67
2022/05/09 01:13:19;;;;;;;6.90;3.20;;;13.20;99.90;;;;;;4418630;28;656957;-67
2022/05/09 01:16:08;;;;;;;4.83;3.00;;;13.20;99.90;;;;;;4426005;28;656549;-67
2022/05/09 01:18:57;;;;;;;4.67;2.57;;;13.10;99.90;;;;;;4427194;28;656592;-68
2022/05/09 01:21:47;;;;;;;8.13;3.07;;;13.00;99.90;;;;;;4437166;28;657364;-67
2022/05/09 01:24:34;;;;;;;6.53;3.30;;;13.00;99.90;;;;;;4445403;28;657388;-67
2022/05/09 01:27:21;;;;;;;8.13;2.97;;;13.00;99.90;;;;;;4418474;28;657160;-67
2022/05/09 01:30:10;;;;;;;4.90;3.10;;;12.90;99.90;;;;;;4443187;28;657182;-67
2022/05/09 01:32:59;;;;;;;6.20;3.00;;;12.90;99.90;;;;;;4412783;28;657905;-67
2022/05/09 01:35:50;;;;;;;6.60;3.30;;;12.80;99.90;;;;;;4419478;28;657886;-67
2022/05/09 01:38:40;;;;;;;5.07;3.30;;;12.80;99.90;;;;;;4416442;28;657403;-67
2022/05/09 01:41:27;;;;;;;10.43;3.90;;;12.90;99.90;;;;;;4419610;28;658897;-67
2022/05/09 01:44:15;;;;;;;5.53;3.53;;;12.90;99.90;;;;;;4431800;28;657589;-67
2022/05/09 01:50:08;;;;;;;5.13;3.40;;;12.90;99.90;;;;;;4415110;28;656687;-67
2022/05/09 01:52:55;;;;;;;7.77;3.67;;;12.90;99.90;;;;;;4420108;28;656330;-67
2022/05/09 01:55:44;;;;;;;6.23;3.50;;;12.90;99.90;;;;;;4437654;28;657731;-67
2022/05/09 01:58:31;;;;;;;5.00;3.40;;;12.80;99.90;;;;;;4422016;28;656487;-67
2022/05/09 02:01:19;;;;;;;5.20;3.63;;;12.80;99.90;;;;;;4441141;28;657513;-67
2022/05/09 02:04:06;;;;;;;6.20;3.27;;;12.90;99.90;;;;;;4417505;28;657720;-67
2022/05/09 02:06:54;;;;;;;6.93;3.30;;;12.80;99.90;;;;;;4438008;28;656727;-68
2022/05/09 02:09:41;;;;;;;6.60;3.60;;;12.80;99.90;;;;;;4421317;28;656467;-67
2022/05/09 02:12:30;;;;;;;6.80;3.30;;;12.70;99.90;;;;;;4438301;28;656105;-67
2022/05/09 02:15:17;;;;;;;7.97;3.30;;;12.70;99.90;;;;;;4419947;28;657822;-67
2022/05/09 02:18:05;;;;;;;6.80;3.80;;;12.70;99.90;;;;;;4436834;28;656953;-68
2022/05/09 02:20:52;;;;;;;6.70;3.90;;;12.60;99.90;;;;;;4412909;28;656822;-67
2022/05/09 02:23:39;;;;;;;6.80;3.80;;;12.50;99.90;;;;;;4438923;28;656572;-67
2022/05/09 02:26:26;;;;;;;6.73;3.80;;;12.50;99.90;;;;;;4420244;28;657280;-67
2022/05/09 02:29:15;;;;;;;5.43;3.10;;;12.40;99.90;;;;;;4441728;28;657630;-68
2022/05/09 02:32:03;;;;;;;5.90;3.20;;;12.30;99.90;;;;;;4414316;28;656489;-68
2022/05/09 02:34:50;;;;;;;7.53;3.70;;;12.20;99.90;;;;;;4421574;28;657001;-67
2022/05/09 02:37:37;;;;;;;6.50;3.07;;;12.30;99.90;;;;;;4443142;28;656257;-67
2022/05/09 02:40:24;;;;;;;4.73;3.53;;;12.30;99.90;;;;;;4438922;28;656988;-67
2022/05/09 02:43:12;;;;;;;6.93;4.13;;;12.30;99.90;;;;;;4415071;28;656953;-67
2022/05/09 02:46:03;;;;;;;7.80;4.40;;;12.30;99.90;;;;;;4435233;28;656325;-67
2022/05/09 02:48:50;;;;;;;7.03;4.73;;;12.40;99.90;;;;;;4398421;28;657137;-67
2022/05/09 02:51:38;;;;;;;9.93;4.53;;;12.30;99.90;;;;;;4437345;28;657485;-67
2022/05/09 02:54:27;;;;;;;6.73;4.87;;;12.20;99.90;;;;;;4413061;28;657427;-67
2022/05/09 02:57:15;;;;;;;10.07;4.80;;;12.10;99.90;;;;;;4435075;28;657163;-67
2022/05/09 03:00:02;;;;;;;8.37;4.90;;;12.00;99.90;;;;;;4442019;28;658004;-67
2022/05/09 03:05:56;;;;;;;12.57;5.00;;;12.00;99.90;;;;;;4392088;28;656917;-67
2022/05/09 03:08:44;;;;;;;7.53;4.73;;;12.00;99.90;;;;;;4436917;28;658346;-67
2022/05/09 03:11:31;;;;;;;6.87;4.57;;;12.00;99.90;;;;;;4421865;28;656894;-67
2022/05/09 03:14:18;;;;;;;6.73;4.43;;;11.90;99.90;;;;;;4441309;28;657876;-67
2022/05/09 03:17:06;;;;;;;21.27;4.80;;;11.80;99.90;;;;;;4419905;28;656733;-67
2022/05/09 03:19:57;;;;;;;9.97;4.50;;;11.80;99.90;;;;;;4439909;28;658100;-67
2022/05/09 03:22:44;;;;;;;8.50;4.60;;;11.80;99.90;;;;;;4417849;28;657535;-67
2022/05/09 03:25:32;;;;;;;9.50;5.10;;;11.90;99.90;;;;;;4417906;28;657069;-67
2022/05/09 03:28:20;;;;;;;11.33;4.90;;;11.90;99.90;;;;;;4438153;28;656647;-67
2022/05/09 03:31:08;;;;;;;6.67;4.13;;;11.90;99.90;;;;;;4412101;28;658244;-67
2022/05/09 03:33:55;;;;;;;8.03;4.40;;;11.90;99.90;;;;;;4435467;28;656261;-67
2022/05/09 03:36:44;;;;;;;7.47;4.70;;;11.80;99.90;;;;;;4438535;28;657039;-67
2022/05/09 03:39:31;;;;;;;7.97;4.43;;;11.90;99.90;;;;;;4419395;28;656126;-67
2022/05/09 03:42:18;;;;;;;6.13;4.23;;;11.80;99.90;;;;;;4441840;28;657314;-67
2022/05/09 03:45:07;;;;;;;6.87;4.57;;;11.80;99.90;;;;;;4419610;28;656934;-67
2022/05/09 03:47:54;;;;;;;9.17;4.57;;;11.80;99.90;;;;;;4441535;28;657136;-67
2022/05/09 03:50:41;;;;;;;5.73;3.80;;;11.80;99.90;;;;;;4422259;28;656782;-67
2022/05/09 03:53:30;;;;;;;5.17;4.13;;;11.70;99.90;;;;;;4437550;28;657848;-67
2022/05/09 03:56:17;;;;;;;10.33;4.30;;;11.70;99.90;;;;;;4421461;28;657528;-67
2022/05/09 03:59:05;;;;;;;7.30;4.20;;;11.80;99.90;;;;;;4432047;28;657657;-67
2022/05/09 04:01:53;;;;;;;5.90;3.53;;;11.80;99.90;;;;;;4444324;28;657143;-67
2022/05/09 04:04:40;;;;;;;11.10;4.13;;;11.80;99.90;;;;;;4433127;28;656409;-67
2022/05/09 04:07:27;;;;;;;5.67;3.37;;;11.80;99.90;;;;;;4443811;28;658065;-67
2022/05/09 04:10:17;;;;;;;5.53;3.30;;;11.90;99.90;;;;;;4437079;28;656629;-67
2022/05/09 04:13:05;;;;;;;8.80;4.57;;;11.90;99.90;;;;;;4414101;28;656926;-67
2022/05/09 04:18:59;;;;;;;7.47;3.77;;;12.00;99.90;;;;;;4396916;28;657525;-67
2022/05/09 04:21:46;;;;;;;6.77;3.60;;;12.00;99.90;;;;;;4415431;28;657599;-67
2022/05/09 04:24:34;;;;;;;10.00;3.73;;;12.10;99.90;;;;;;4438087;28;657258;-67
2022/05/09 04:27:22;;;;;;;7.73;4.00;;;12.10;99.90;;;;;;4418005;28;657768;-67
2022/05/09 04:30:11;;;;;;;7.87;4.07;;;12.10;99.90;;;;;;4430624;28;656304;-67
2022/05/09 04:32:59;;;;;;;6.90;3.93;;;12.20;99.90;;;;;;4437465;28;657109;-67
2022/05/09 04:35:46;;;;;;;8.98;4.10;;;12.40;99.90;;;;;;4414548;28;657188;-67
2022/05/09 04:38:34;;;;;;;11.23;4.17;;;12.60;99.90;;;;;;4442787;28;656397;-67
2022/05/09 04:41:22;;;;;;;7.40;4.53;;;12.60;99.90;;;;;;4414381;28;657976;-67
2022/05/09 04:44:10;;;;;;;8.63;4.60;;;12.70;99.90;;;;;;4432185;28;656995;-67
2022/05/09 04:46:57;;;;;;;6.47;3.70;;;12.80;99.90;;;;;;4415326;28;656857;-67
2022/05/09 04:49:45;;;;;;;8.83;4.53;;;12.90;99.90;;;;;;4433440;28;656685;-67
2022/05/09 04:52:32;;;;;;;8.27;4.10;;;12.90;99.90;;;;;;4440458;28;657224;-67
2022/05/09 04:55:20;;;;;;;6.13;4.10;;;12.90;99.90;;;;;;4434302;28;656527;-67
2022/05/09 04:58:07;;;;;;;5.60;4.20;;;13.00;99.90;;;;;;4414227;28;657522;-67
2022/05/09 05:00:56;;;;;;;5.90;3.90;;;13.00;99.90;;;;;;4436744;28;656665;-67
2022/05/09 05:03:43;;;;;;;6.87;4.17;;;13.00;99.90;;;;;;4420967;28;656997;-67
2022/05/09 05:06:30;;;;;;;9.25;4.25;;;12.90;99.90;;;;;;4420245;28;656866;-67
2022/05/09 05:09:17;;;;;;;6.27;3.67;;;12.90;99.90;;;;;;4433151;28;657223;-67
2022/05/09 05:12:06;;;;;;;9.83;4.57;;;12.90;99.90;;;;;;4437672;28;656937;-67
2022/05/09 05:14:53;;;;;;;6.17;3.90;;;12.90;99.90;;;;;;4440594;28;657263;-67
2022/05/09 05:17:42;;;;;;;8.90;4.27;;;13.00;99.90;;;;;;4415771;28;656485;-67
2022/05/09 05:20:30;;;;;;;7.17;4.17;;;13.10;99.90;;;;;;4440979;28;655943;-67
2022/05/09 05:23:17;;;;;;;8.47;4.27;;;13.10;99.90;;;;;;4412301;28;657372;-67
2022/05/09 05:26:04;;;;;;;7.43;4.50;;;13.10;99.90;;;;;;4436891;28;656883;-68
2022/05/09 05:28:51;;;;;;;8.17;4.20;;;13.20;99.90;;;;;;4416970;28;656934;-67
2022/05/09 05:31:39;;;;;;;11.57;4.73;;;13.40;99.90;;;;;;4444804;28;656767;-67
2022/05/09 05:34:27;;;;;;;8.10;4.17;;;13.60;99.90;;;;;;4418037;28;658083;-67
2022/05/09 05:37:15;;;;;;;9.67;4.20;;;13.80;99.90;;;;;;4432554;28;657050;-68
2022/05/09 05:40:03;;;;;;;8.63;3.87;;;14.00;99.90;;;;;;4419529;28;657476;-67
2022/05/09 05:42:52;;;;;;;6.27;3.77;;;14.20;99.90;;;;;;4417261;28;656969;-67
2022/05/09 05:45:39;;;;;;;9.63;4.00;;;14.40;99.90;;;;;;4440952;28;656495;-67
2022/05/09 05:48:26;;;;;;;6.27;3.40;;;14.50;99.90;;;;;;4418782;28;656681;-67
2022/05/09 05:51:18;;;;;;;6.40;3.70;;;14.70;99.90;;;;;;4434486;28;656919;-67
2022/05/09 05:54:06;;;;;;;7.13;3.40;;;14.80;99.90;;;;;;4393720;28;656783;-67
2022/05/09 05:56:53;;;;;;;8.13;3.33;;;14.70;99.90;;;;;;4445125;28;657348;-68
2022/05/09 05:59:40;;;;;;;10.10;3.43;;;14.90;99.90;;;;;;4430237;28;656770;-67
2022/05/09 06:02:27;;;;;;;7.47;3.40;;;15.10;99.90;;;;;;4443479;28;658449;-67
2022/05/09 06:05:16;;;;;;;7.60;3.60;;;15.20;99.90;;;;;;4435401;28;657176;-67
2022/05/09 06:08:06;;;;;;;7.77;3.53;;;15.40;99.90;;;;;;4438706;28;656490;-67
2022/05/09 06:10:53;;;;;;;5.67;3.17;;;15.40;99.60;;;;;;4416979;28;657343;-67
2022/05/09 06:13:40;;;;;;;7.30;3.50;;;15.50;94.60;;;;;;4423687;28;656609;-67
2022/05/09 06:16:27;;;;;;;5.13;3.27;;;15.60;99.40;;;;;;4436196;28;657731;-67
2022/05/09 06:19:15;;;;;;;6.13;3.30;;;15.60;94.20;;;;;;4430888;28;656822;-68
2022/05/09 06:22:03;;;;;;;7.87;3.60;;;15.80;93.60;;;;;;4431925;28;657246;-67
2022/05/09 06:24:57;;;;;;;5.70;3.27;;;15.80;98.60;;;;;;4439103;28;656630;-67
2022/05/09 06:27:44;;;;;;;5.93;2.93;;;16.00;99.20;;;;;;4420445;28;657072;-67
2022/05/09 06:30:31;;;;;;;10.33;3.70;;;16.10;96.20;;;;;;4418322;28;656624;-68
2022/05/09 06:33:23;;;;;;;8.77;3.33;;;16.10;94.30;;;;;;4449857;28;657811;-68
2022/05/09 06:36:10;;;;;;;7.97;3.50;;;16.10;94.30;;;;;;4408980;28;656582;-67
2022/05/09 06:38:57;;;;;;;14.30;3.20;;;16.30;95.40;;;;;;4451408;28;656556;-68
2022/05/09 06:41:47;;;;;;;7.40;3.50;;;16.70;96.80;;;;;;4443284;28;657467;-68
2022/05/09 06:44:35;;;;;;;6.63;3.37;;;17.00;91.80;;;;;;4420294;28;657206;-68
2022/05/09 06:47:22;;;;;;;6.50;3.40;;;17.10;89.70;;;;;;4422579;28;656948;-68
2022/05/09 06:50:10;;;;;;;8.23;3.30;;;16.80;90.00;;;;;;4450745;28;656929;-68
2022/05/09 06:52:58;;;;;;;28.97;13.23;;;16.90;85.80;;;;;;4445499;28;656885;-68
2022/05/09 06:55:45;;;;;;;9.43;2.80;;;17.00;88.80;;;;;;4430203;28;658572;-68
2022/05/09 06:58:34;;;;;;;8.90;2.60;;;17.30;93.10;;;;;;4438873;28;658099;-68
2022/05/09 07:01:21;;;;;;;6.77;2.80;;;17.50;86.70;;;;;;4417164;28;656684;-68
2022/05/09 07:04:08;;;;;;;10.17;2.83;;;17.50;91.00;;;;;;4435698;28;657154;-68
2022/05/09 07:06:57;;;;;;;6.53;2.60;;;17.80;90.30;;;;;;4415541;28;657587;-68
2022/05/09 07:09:44;;;;;;;7.33;2.67;;;17.60;76.70;;;;;;4430968;28;656941;-68
2022/05/09 07:12:32;;;;;;;6.40;2.50;;;17.80;80.50;;;;;;4429082;28;656924;-68
2022/05/09 07:15:22;;;;;;;4.77;2.10;;;17.80;67.60;;;;;;4441531;28;656088;-68
2022/05/09 07:18:09;;;;;;;4.93;2.60;;;17.80;74.20;;;;;;4423911;28;656731;-68
2022/05/09 07:20:57;;;;;;;4.87;2.40;;;18.00;79.50;;;;;;4434023;28;656616;-67
2022/05/09 07:23:44;;;;;;;5.63;2.57;;;18.10;71.60;;;;;;4441176;28;656033;-68
2022/05/09 07:26:31;;;;;;;7.47;2.73;;;18.00;67.80;;;;;;4419738;28;656816;-68
2022/05/09 07:29:18;;;;;;;10.07;2.80;;;17.90;69.80;;;;;;4435987;28;657115;-68
2022/05/09 07:32:08;;;;;;;9.23;2.70;;;18.10;67.30;;;;;;4414910;28;657678;-67
2022/05/09 07:34:55;;;;;;;9.37;2.20;;;18.10;63.80;;;;;;4423286;28;657074;-68
2022/05/09 07:37:43;;;;;;;7.80;2.07;;;18.60;61.60;;;;;;4443646;28;656886;-68
2022/05/09 07:40:31;;;;;;;5.03;2.00;;;18.10;59.90;;;;;;4419012;28;657965;-67
2022/05/09 07:43:19;;;;;;;10.57;2.17;;;17.60;60.00;;;;;;4430445;28;656833;-67
2022/05/09 07:46:06;;;;;;;9.40;2.07;;;18.40;61.20;;;;;;4386302;28;658915;-68
2022/05/09 07:48:55;;;;;;;8.67;2.10;;;18.80;60.00;;;;;;4432230;28;658576;-67
2022/05/09 07:51:42;;;;;;;7.23;2.30;;;18.90;57.40;;;;;;4405814;28;657434;-67
2022/05/09 07:54:29;;;;;;;5.17;1.93;;;19.00;59.60;;;;;;4418817;28;656313;-68
2022/05/09 07:57:17;;;;;;;6.87;2.03;;;19.00;64.00;;;;;;4410572;28;657566;-67
2022/05/09 08:00:05;;;;;;;7.53;2.17;;;19.30;57.40;;;;;;4436974;28;656865;-68
2022/05/09 08:02:52;;;;;;;7.83;2.07;;;19.50;54.60;;;;;;4414490;28;657970;-68
2022/05/09 08:05:42;;;;;;;5.83;2.10;;;19.30;56.00;;;;;;4427241;28;656750;-67
2022/05/09 08:08:29;;;;;;;9.40;2.10;;;18.70;54.40;;;;;;4434722;28;656648;-67
2022/05/09 08:11:17;;;;;;;5.10;2.10;;;19.20;55.30;;;;;;4409931;28;657137;-68
2022/05/09 08:14:04;;;;;;;5.37;2.00;;;19.80;58.80;;;;;;4432511;28;657308;-68
2022/05/09 08:16:51;;;;;;;5.40;2.23;;;20.20;57.30;;;;;;4415131;28;656556;-68
2022/05/09 08:19:39;;;;;;;4.57;1.87;;;20.20;52.90;;;;;;4420955;28;657112;-68
2022/05/09 08:22:31;;;;;;;7.03;2.33;;;19.60;56.40;;;;;;4394264;28;657176;-68
2022/05/09 08:25:18;;;;;;;5.03;2.23;;;19.20;54.80;;;;;;4390338;28;657710;-68
2022/05/09 08:28:07;;;;;;;6.97;2.13;;;19.00;56.90;;;;;;4392271;28;656427;-68
2022/05/09 08:30:54;;;;;;;5.40;2.50;;;19.20;58.80;;;;;;4418734;28;656157;-68
2022/05/09 08:33:42;;;;;;;5.30;2.27;;;19.70;55.70;;;;;;4395746;28;658193;-68
2022/05/09 08:39:32;;;;;;;6.63;2.00;;;19.80;51.30;;;;;;4396530;28;656882;-68
2022/05/09 08:42:21;;;;;;;3.13;1.90;;;19.80;54.90;;;;;;4429162;28;656731;-68
2022/05/09 08:45:14;;;;;;;8.90;2.53;;;19.70;53.80;;;;;;4411190;28;656521;-68
2022/05/09 08:48:18;;;;;;;11.17;2.60;;;19.20;53.40;;;;;;4408736;28;657366;-68
2022/05/09 08:51:13;;;;;;;5.60;2.13;;;19.10;56.00;;;;;;4419706;28;657691;-68
2022/05/09 08:54:01;;;;;;;6.53;2.30;;;19.50;56.00;;;;;;4421050;28;656420;-68
2022/05/09 08:56:51;;;;;;;7.23;2.40;;;18.70;53.30;;;;;;4445373;28;657623;-68
2022/05/09 08:59:39;;;;;;;9.63;2.37;;;18.20;54.00;;;;;;4436345;28;656717;-68
2022/05/09 09:02:30;;;;;;;6.17;2.10;;;19.00;57.00;;;;;;4427610;28;656726;-68
2022/05/09 09:05:20;;;;;;;7.93;2.40;;;20.20;69.40;;;;;;4428602;28;657304;-68
2022/05/09 09:08:15;;;;;;;7.43;2.63;;;19.80;54.30;;;;;;4427373;28;657768;-67
2022/05/09 09:11:11;;;;;;;5.43;2.03;;;19.50;54.40;;;;;;4438062;28;657188;-68
2022/05/09 09:14:05;;;;;;;6.93;2.50;;;19.40;54.60;;;;;;4421132;28;656755;-68
2022/05/09 09:17:03;;;;;;;5.20;1.70;;;19.70;56.70;;;;;;4415328;28;656729;-68
2022/05/09 09:19:59;;;;;;;5.40;2.47;;;20.60;56.00;;;;;;4396924;28;656777;-68
2022/05/09 09:23:14;;;;;;;11.13;2.40;;;21.20;51.30;;;;;;4415406;28;656763;-68
2022/05/09 09:26:03;;;;;;;10.47;2.40;;;20.50;53.70;;;;;;4413543;28;657276;-68
2022/05/09 09:28:52;;;;;;;4.67;2.30;;;19.80;50.40;;;;;;4441217;28;658360;-67
2022/05/09 09:31:44;;;;;;;4.33;1.93;;;19.80;52.50;;;;;;4437315;28;656480;-68
2022/05/09 09:34:34;;;;;;;5.73;2.10;;;19.70;52.90;;;;;;4398830;28;657010;-68
2022/05/09 09:37:26;;;;;;;10.03;2.67;;;19.70;53.30;;;;;;4416023;28;656801;-68
2022/05/09 09:40:13;;;;;;;5.00;2.30;;;19.90;52.10;;;;;;4420134;28;658083;-68
2022/05/09 09:43:00;;;;;;;6.40;2.60;;;19.90;52.40;;;;;;4426619;28;656424;-68
2022/05/09 09:45:52;;;;;;;4.73;2.27;;;19.60;54.50;;;;;;4448778;28;656647;-68
2022/05/09 09:48:41;;;;;;;7.27;2.67;;;19.10;53.90;;;;;;4419772;28;657041;-68
2022/05/09 09:51:28;;;;;;;7.33;2.20;;;19.30;53.20;;;;;;4420294;28;657036;-68
2022/05/09 09:54:18;;;;;;;5.63;2.17;;;19.30;52.60;;;;;;4423734;28;656344;-68
2022/05/09 09:57:17;;;;;;;4.87;2.10;;;19.40;52.40;;;;;;4433057;28;656738;-68
2022/05/09 10:00:17;;;;;;;6.17;2.40;;;19.20;51.00;;;;;;4412748;28;656639;-68
2022/05/09 10:03:16;;;;;;;9.37;2.43;;;19.20;52.80;;;;;;4427838;28;656234;-68
2022/05/09 10:06:05;;;;;;;9.67;2.53;;;19.60;54.70;;;;;;4420538;28;656553;-68
2022/05/09 10:08:57;;;;;;;7.73;2.40;;;20.00;52.10;;;;;;4419779;28;657319;-68
2022/05/09 10:11:45;;;;;;;6.73;2.50;;;19.40;52.40;;;;;;4440739;28;656353;-68
2022/05/09 10:14:34;;;;;;;6.93;2.43;;;19.20;53.00;;;;;;4433496;28;657440;-68
2022/05/09 10:17:22;;;;;;;6.77;2.20;;;20.20;53.00;;;;;;4417216;28;656766;-68
2022/05/09 10:20:27;;;;;;;3.93;2.20;;;20.80;53.50;;;;;;4419768;28;656741;-68
2022/05/09 10:26:25;;;;;;;5.57;2.10;;;19.60;50.80;;;;;;4414721;28;656800;-68
2022/05/09 10:29:17;;;;;;;5.50;2.27;;;19.40;51.90;;;;;;4410575;28;657991;-68
2022/05/09 10:32:06;;;;;;;7.13;2.37;;;20.20;54.60;;;;;;4418224;28;656727;-68
2022/05/09 10:34:55;;;;;;;15.30;2.90;;;20.80;50.40;;;;;;4421209;28;657677;-68
2022/05/09 10:37:50;;;;;;;6.33;2.17;;;21.70;48.10;;;;;;4419305;28;658103;-68
2022/05/09 10:40:41;;;;;;;5.13;1.97;;;19.80;49.10;;;;;;4397074;28;658038;-68
2022/05/09 10:43:30;;;;;;;10.90;2.20;;;21.20;52.40;;;;;;4416526;28;656557;-68
2022/05/09 10:46:17;;;;;;;4.43;2.00;;;21.20;49.40;;;;;;4416863;28;659061;-68
2022/05/09 10:49:07;;;;;;;4.80;2.33;;;20.40;48.80;;;;;;4439275;28;657663;-68
2022/05/09 10:52:05;;;;;;;6.73;2.23;;;20.40;47.80;;;;;;4420721;28;657942;-68
2022/05/09 10:54:55;;;;;;;6.43;2.00;;;20.00;50.10;;;;;;4422928;28;656723;-68
2022/05/09 10:57:47;;;;;;;7.37;2.43;;;19.90;50.00;;;;;;4419831;28;656956;-68
2022/05/09 11:00:35;;;;;;;7.07;2.50;;;19.60;48.10;;;;;;4419390;28;656518;-68
2022/05/09 11:03:25;;;;;;;9.63;2.70;;;19.60;48.60;;;;;;4422116;28;656882;-68
2022/05/09 11:06:47;;;;;;;5.83;2.40;;;20.40;52.50;;;;;;4414267;28;657338;-68
2022/05/09 11:09:41;;;;;;;6.00;2.23;;;21.70;52.80;;;;;;4373389;28;656504;-67
2022/05/09 11:12:47;;;;;;;10.17;1.90;;;21.70;52.40;;;;;;4412202;28;656931;-67
2022/05/09 11:15:39;;;;;;;7.87;2.67;;;22.90;47.10;;;;;;4416434;28;657571;-68
2022/05/09 11:18:44;;;;;;;8.13;2.30;;;23.20;44.80;;;;;;4420526;28;656517;-67
2022/05/09 11:21:38;;;;;;;6.10;2.20;;;21.60;45.80;;;;;;4423581;28;656637;-67
2022/05/09 11:24:48;;;;;;;7.80;2.50;;;20.30;48.20;;;;;;4395704;28;657000;-67
2022/05/09 11:27:48;;;;;;;6.80;2.70;;;19.70;49.50;;;;;;4401951;28;657216;-67
2022/05/09 11:30:37;;;;;;;6.50;2.27;;;19.00;51.80;;;;;;4401838;28;656639;-67
2022/05/09 11:33:38;;;;;;;7.43;2.37;;;18.80;51.20;;;;;;4439546;28;656872;-67
2022/05/09 11:36:35;;;;;;;7.30;2.43;;;18.70;52.40;;;;;;4416909;28;656703;-67
2022/05/09 11:39:24;;;;;;;9.63;2.53;;;18.80;52.60;;;;;;4419741;28;657035;-67
2022/05/09 11:45:26;;;;;;;8.03;2.33;;;19.70;52.60;;;;;;4389071;28;657485;-67
2022/05/09 11:48:18;;;;;;;4.37;2.03;;;19.80;47.30;;;;;;4415106;28;657249;-67
2022/05/09 11:51:10;;;;;;;11.17;2.10;;;20.90;50.10;;;;;;4397666;28;656289;-67
2022/05/09 11:54:00;;;;;;;6.63;2.63;;;22.20;50.80;;;;;;4421585;28;658925;-67
2022/05/09 11:56:48;;;;;;;5.70;2.23;;;22.20;49.00;;;;;;4413741;28;658076;-67
2022/05/09 11:59:37;;;;;;;8.67;2.90;;;22.40;49.00;;;;;;4417577;28;657559;-67
2022/05/09 12:02:49;;;;;;;6.70;2.50;;;22.30;47.20;;;;;;4429568;28;656814;-67
2022/05/09 12:05:49;;;;;;;5.30;2.27;;;21.70;46.40;;;;;;4394456;28;656862;-67
2022/05/09 12:08:43;;;;;;;6.10;2.23;;;22.00;49.50;;;;;;4421172;28;656489;-67
2022/05/09 12:11:32;;;;;;;5.60;2.50;;;22.70;46.00;;;;;;4392702;28;656427;-67
2022/05/09 12:14:39;;;;;;;9.07;2.27;;;22.60;44.60;;;;;;4434877;28;656892;-67
2022/05/09 12:17:36;;;;;;;8.27;2.17;;;23.00;45.00;;;;;;4388866;28;656679;-67
2022/05/09 12:20:57;;;;;;;4.53;2.20;;;22.70;43.60;;;;;;4413390;28;656969;-67
2022/05/09 12:23:54;;;;;;;4.05;2.05;;;23.00;44.10;;;;;;4420580;28;656811;-67
2022/05/09 12:26:43;;;;;;;5.03;2.10;;;23.00;42.00;;;;;;4397173;28;657210;-67
2022/05/09 12:29:49;;;;;;;7.27;1.90;;;22.20;43.80;;;;;;4424104;28;656923;-67
2022/05/09 12:32:36;;;;;;;5.87;2.20;;;21.30;45.70;;;;;;4419713;28;656964;-67
2022/05/09 12:35:23;;;;;;;5.07;2.20;;;20.50;46.90;;;;;;4437939;28;657259;-67
2022/05/09 12:38:11;;;;;;;6.90;2.13;;;20.80;46.90;;;;;;4410602;28;657334;-67
2022/05/09 12:41:02;;;;;;;4.57;1.90;;;20.40;48.90;;;;;;4443129;28;656945;-67
2022/05/09 12:43:51;;;;;;;8.60;2.20;;;20.00;49.60;;;;;;4419384;28;656564;-67
2022/05/09 12:46:40;;;;;;;5.07;2.00;;;20.20;48.40;;;;;;4420718;28;658121;-67
2022/05/09 12:49:33;;;;;;;6.57;2.30;;;21.10;45.80;;;;;;4419239;28;657828;-67
2022/05/09 12:52:22;;;;;;;7.27;2.13;;;21.90;46.20;;;;;;4399282;28;656758;-67
2022/05/09 12:58:27;;;;;;;5.60;2.20;;;23.00;42.40;;;;;;4419586;28;657882;-67
2022/05/09 13:01:17;;;;;;;8.70;2.30;;;23.00;44.50;;;;;;4416286;28;656889;-67
2022/05/09 13:04:05;;;;;;;6.93;2.15;;;23.90;41.60;;;;;;4421180;28;656261;-67
2022/05/09 13:06:54;;;;;;;7.97;2.40;;;23.70;40.20;;;;;;4419958;28;658978;-67
2022/05/09 13:09:47;;;;;;;8.27;2.25;;;22.70;43.20;;;;;;4425724;28;656701;-67
2022/05/09 13:12:36;;;;;;;3.43;2.00;;;22.30;43.60;;;;;;4424720;28;656776;-67
2022/05/09 13:15:24;;;;;;;10.47;2.13;;;21.30;42.90;;;;;;4423752;28;656818;-67
2022/05/09 13:18:12;;;;;;;8.40;2.00;;;21.50;44.70;;;;;;4414440;28;660006;-67
2022/05/09 13:21:01;;;;;;;7.13;2.07;;;20.70;45.80;;;;;;4444812;28;656651;-67
2022/05/09 13:23:48;;;;;;;5.27;2.17;;;20.80;43.90;;;;;;4425034;28;657559;-67
2022/05/09 13:26:39;;;;;;;7.30;2.37;;;20.60;45.20;;;;;;4423580;28;657237;-67
2022/05/09 13:29:29;;;;;;;7.37;2.20;;;20.50;47.90;;;;;;4424683;28;656241;-67
2022/05/09 13:32:25;;;;;;;5.03;2.20;;;20.20;47.40;;;;;;4418766;28;656582;-67
2022/05/09 13:35:22;;;;;;;7.90;2.17;;;20.50;48.90;;;;;;4390666;28;657171;-67
2022/05/09 13:38:19;;;;;;;4.90;2.20;;;21.50;44.60;;;;;;4420106;28;656626;-67
2022/05/09 13:41:07;;;;;;;7.43;2.10;;;23.20;43.60;;;;;;4393743;28;657838;-67
2022/05/09 13:43:57;;;;;;;9.47;2.20;;;23.60;41.40;;;;;;4442532;28;657076;-67
2022/05/09 13:46:44;;;;;;;5.85;2.38;;;24.50;42.40;;;;;;4423373;28;656114;-67
2022/05/09 13:49:33;;;;;;;10.05;2.10;;;24.90;42.80;;;;;;4396336;28;656564;-67
2022/05/09 13:52:24;;;;;;;8.90;2.42;;;23.10;41.60;;;;;;4410036;28;658530;-67
2022/05/09 13:55:11;;;;;;;8.05;2.10;;;22.10;41.10;;;;;;4402448;28;656197;-67
2022/05/09 13:57:59;;;;;;;6.27;2.40;;;22.20;42.70;;;;;;4422435;28;656510;-67
2022/05/09 14:00:48;;;;;;;8.63;2.60;;;21.70;43.50;;;;;;4401635;28;656634;-67
2022/05/09 14:03:36;;;;;;;5.33;2.20;;;21.20;45.40;;;;;;4395920;28;656968;-67
2022/05/09 14:06:29;;;;;;;5.40;1.97;;;20.60;44.90;;;;;;4429039;28;656814;-66
2022/05/09 14:09:17;;;;;;;7.40;2.20;;;20.50;45.10;;;;;;4372542;28;657129;-67
2022/05/09 14:12:05;;;;;;;4.50;2.33;;;21.00;45.10;;;;;;4420340;28;656908;-67
2022/05/09 14:15:01;;;;;;;5.28;2.10;;;21.90;43.70;;;;;;4395075;28;658182;-67
2022/05/09 14:17:52;;;;;;;4.60;2.03;;;22.00;42.60;;;;;;4402383;28;657163;-67
2022/05/09 14:20:41;;;;;;;6.60;2.07;;;21.60;42.80;;;;;;4402593;28;656731;-67
2022/05/09 14:23:30;;;;;;;6.83;2.17;;;21.50;43.80;;;;;;4397712;28;657183;-67
2022/05/09 14:29:38;;;;;;;7.87;2.27;;;20.40;43.70;;;;;;4396337;28;656691;-67
2022/05/09 14:32:42;;;;;;;7.17;2.47;;;19.80;44.40;;;;;;4378968;28;657447;-67
2022/05/09 14:35:37;;;;;;;4.57;1.93;;;20.00;45.50;;;;;;4395968;28;656933;-67
2022/05/09 14:38:28;;;;;;;8.90;2.60;;;19.30;47.30;;;;;;4400025;28;657234;-67
2022/05/09 14:41:40;;;;;;;9.37;2.73;;;19.40;46.70;;;;;;4381652;28;657250;-67
2022/05/09 14:44:28;;;;;;;6.77;2.10;;;20.00;46.70;;;;;;4377581;28;657051;-67
2022/05/09 14:47:19;;;;;;;5.57;2.30;;;20.90;45.40;;;;;;4402512;28;656630;-67
2022/05/09 14:50:10;;;;;;;5.83;2.30;;;21.90;45.70;;;;;;4397602;28;658335;-67
2022/05/09 14:53:00;;;;;;;5.17;2.43;;;21.90;44.70;;;;;;4402238;28;656770;-67
2022/05/09 14:59:05;;;;;;;5.77;2.20;;;20.40;45.20;;;;;;4401359;28;657711;-67